createdAt,value
2023-11-24T00:01:40.128Z,8.80
2023-11-24T00:04:07.142Z,8.52
2023-11-24T00:06:33.887Z,7.68
2023-11-24T00:09:00.450Z,8.02
2023-11-24T00:11:27.756Z,7.85
2023-11-24T00:13:54.858Z,7.00
2023-11-24T00:16:22.795Z,6.97
2023-11-24T00:18:49.492Z,7.07
2023-11-24T00:23:42.711Z,6.65
2023-11-24T00:26:09.341Z,6.28
2023-11-24T00:28:40.398Z,5.90
2023-11-24T00:31:08.277Z,5.88
2023-11-24T00:33:38.754Z,5.90
2023-11-24T00:36:07.246Z,5.72
2023-11-24T00:38:33.811Z,6.40
2023-11-24T00:41:01.397Z,5.63
2023-11-24T00:43:28.008Z,5.28
2023-11-24T00:45:54.818Z,5.28
2023-11-24T00:50:49.225Z,5.05
2023-11-24T00:53:15.679Z,5.57
2023-11-24T00:55:42.177Z,5.78
2023-11-24T00:58:08.632Z,6.25
2023-11-24T01:00:35.083Z,5.60
2023-11-24T01:03:01.646Z,4.80
2023-11-24T01:05:30.775Z,4.50
2023-11-24T01:07:59.250Z,5.80
2023-11-24T01:10:25.848Z,5.57
2023-11-24T01:12:55.002Z,5.45
2023-11-24T01:15:21.953Z,5.80
2023-11-24T01:17:48.734Z,5.35
2023-11-24T01:20:17.700Z,5.68
2023-11-24T01:22:45.869Z,5.50
2023-11-24T01:25:13.042Z,6.10
2023-11-24T01:27:39.819Z,4.78
2023-11-24T01:30:10.744Z,6.13
2023-11-24T01:32:37.691Z,10.43
2023-11-24T01:35:05.276Z,10.88
2023-11-24T01:37:31.905Z,9.07
2023-11-24T01:39:58.445Z,9.00
2023-11-24T01:42:24.969Z,9.48
2023-11-24T01:44:51.432Z,10.57
2023-11-24T01:47:17.894Z,10.40
2023-11-24T01:49:46.859Z,11.52
2023-11-24T01:52:15.045Z,8.88
2023-11-24T01:54:42.211Z,11.00
2023-11-24T01:57:09.051Z,7.05
2023-11-24T01:59:36.511Z,7.72
2023-11-24T02:02:03.820Z,6.55
2023-11-24T02:04:31.038Z,6.55
2023-11-24T02:06:58.689Z,6.20
2023-11-24T02:09:25.674Z,6.18
2023-11-24T02:11:52.174Z,6.07
2023-11-24T02:14:18.716Z,7.00
2023-11-24T02:16:46.070Z,6.57
2023-11-24T02:19:12.848Z,6.63
2023-11-24T02:21:39.374Z,6.68
2023-11-24T02:24:07.137Z,6.97
2023-11-24T02:26:33.570Z,7.15
2023-11-24T02:29:00.061Z,6.70
2023-11-24T02:31:26.591Z,6.97
2023-11-24T02:33:54.010Z,6.15
2023-11-24T02:36:28.557Z,5.65
2023-11-24T02:38:55.202Z,5.93
2023-11-24T02:41:25.888Z,5.95
2023-11-24T02:43:52.464Z,4.47
2023-11-24T02:46:18.924Z,3.38
2023-11-24T02:48:45.695Z,3.10
2023-11-24T02:51:12.515Z,3.03
2023-11-24T02:53:39.182Z,3.38
2023-11-24T02:56:06.574Z,4.45
2023-11-24T02:58:34.786Z,5.00
2023-11-24T03:01:02.366Z,5.40
2023-11-24T03:03:29.697Z,4.85
2023-11-24T03:05:56.723Z,5.72
2023-11-24T03:08:24.719Z,5.65
2023-11-24T03:10:51.177Z,5.65
2023-11-24T03:13:17.663Z,6.20
2023-11-24T03:15:44.150Z,6.32
2023-11-24T03:18:10.653Z,6.57
2023-11-24T03:20:37.492Z,5.95
2023-11-24T03:23:04.423Z,5.78
2023-11-24T03:25:30.888Z,4.55
2023-11-24T03:27:57.574Z,4.10
2023-11-24T03:30:28.142Z,4.15
2023-11-24T03:32:54.584Z,5.30
2023-11-24T03:35:21.087Z,6.30
2023-11-24T03:37:47.785Z,5.35
2023-11-24T03:40:15.359Z,6.70
2023-11-24T03:42:41.931Z,6.18
2023-11-24T03:45:08.820Z,6.82
2023-11-24T03:47:35.338Z,7.22
2023-11-24T03:50:02.184Z,7.82
2023-11-24T03:52:28.664Z,7.85
2023-11-24T03:54:55.196Z,6.88
2023-11-24T03:57:21.932Z,6.13
2023-11-24T03:59:48.466Z,6.60
2023-11-24T04:02:15.008Z,3.90
2023-11-24T04:04:41.529Z,2.58
2023-11-24T04:07:08.024Z,2.15
2023-11-24T04:09:34.800Z,2.92
2023-11-24T04:12:01.364Z,2.75
2023-11-24T04:14:27.841Z,3.20
2023-11-24T04:16:54.286Z,3.22
2023-11-24T04:19:21.685Z,2.83
2023-11-24T04:21:48.177Z,2.88
2023-11-24T04:24:14.657Z,3.53
2023-11-24T04:26:41.182Z,2.90
2023-11-24T04:29:07.911Z,2.63
2023-11-24T04:31:34.394Z,2.80
2023-11-24T04:34:01.545Z,2.85
2023-11-24T04:36:29.487Z,2.53
2023-11-24T04:38:55.953Z,2.80
2023-11-24T04:41:22.429Z,2.53
2023-11-24T04:43:48.855Z,2.83
2023-11-24T04:46:15.422Z,2.80
2023-11-24T04:48:43.317Z,3.10
2023-11-24T04:51:09.862Z,2.90
2023-11-24T04:53:37.864Z,3.17
2023-11-24T04:56:06.707Z,3.10
2023-11-24T04:58:33.660Z,3.22
2023-11-24T05:01:00.224Z,2.65
2023-11-24T05:03:26.808Z,3.20
2023-11-24T05:05:53.399Z,3.40
2023-11-24T05:08:21.188Z,2.90
2023-11-24T05:10:47.696Z,2.55
2023-11-24T05:13:14.754Z,3.08
2023-11-24T05:15:41.221Z,3.20
2023-11-24T05:18:08.674Z,3.85
2023-11-24T05:20:35.371Z,3.00
2023-11-24T05:23:01.795Z,2.78
2023-11-24T05:25:28.630Z,3.75
2023-11-24T05:27:55.126Z,3.65
2023-11-24T05:30:21.624Z,3.38
2023-11-24T05:32:48.181Z,2.90
2023-11-24T05:35:14.701Z,3.40
2023-11-24T05:37:41.177Z,3.00
2023-11-24T05:40:09.810Z,3.00
2023-11-24T05:42:36.358Z,3.58
2023-11-24T05:45:03.357Z,3.65
2023-11-24T05:47:30.595Z,3.40
2023-11-24T05:49:57.413Z,3.47
2023-11-24T05:52:24.760Z,4.35
2023-11-24T05:54:51.388Z,3.72
2023-11-24T05:57:17.859Z,3.88
2023-11-24T05:59:44.412Z,3.88
2023-11-24T06:02:11.016Z,3.97
2023-11-24T06:04:37.672Z,4.05
2023-11-24T06:07:05.483Z,4.15
2023-11-24T06:09:34.082Z,3.90
2023-11-24T06:12:00.609Z,3.58
2023-11-24T06:14:27.096Z,4.13
2023-11-24T06:16:53.762Z,3.88
2023-11-24T06:19:20.321Z,4.20
2023-11-24T06:21:46.831Z,4.30
2023-11-24T06:24:14.699Z,4.30
2023-11-24T06:26:41.222Z,3.70
2023-11-24T06:29:07.681Z,3.40
2023-11-24T06:31:34.173Z,4.95
2023-11-24T06:34:00.681Z,4.75
2023-11-24T06:36:27.268Z,4.75
2023-11-24T06:38:53.795Z,5.43
2023-11-24T06:41:20.502Z,5.15
2023-11-24T06:43:47.062Z,5.22
2023-11-24T06:46:13.743Z,4.55
2023-11-24T06:48:40.480Z,4.30
2023-11-24T06:51:08.244Z,3.90
2023-11-24T06:53:35.781Z,4.30
2023-11-24T06:56:02.247Z,3.95
2023-11-24T06:58:28.860Z,4.68
2023-11-24T07:00:55.677Z,4.38
2023-11-24T07:03:22.243Z,4.05
2023-11-24T07:05:48.787Z,4.70
2023-11-24T07:08:17.859Z,4.95
2023-11-24T07:10:45.246Z,3.58
2023-11-24T07:13:11.925Z,3.20
2023-11-24T07:15:39.303Z,4.22
2023-11-24T07:18:05.904Z,4.35
2023-11-24T07:20:32.380Z,4.40
2023-11-24T07:22:59.367Z,4.75
2023-11-24T07:25:27.231Z,4.07
2023-11-24T07:27:53.718Z,3.63
2023-11-24T07:30:20.275Z,3.85
2023-11-24T07:32:46.903Z,3.22
2023-11-24T07:35:15.197Z,3.47
2023-11-24T07:37:41.915Z,3.70
2023-11-24T07:40:14.988Z,3.55
2023-11-24T07:42:44.627Z,3.83
2023-11-24T07:45:12.005Z,3.63
2023-11-24T07:47:38.564Z,3.50
2023-11-24T07:50:05.722Z,3.60
2023-11-24T07:52:32.257Z,3.67
2023-11-24T07:54:58.730Z,4.32
2023-11-24T07:57:26.313Z,4.85
2023-11-24T07:59:53.686Z,4.53
2023-11-24T08:02:20.231Z,3.70
2023-11-24T08:04:46.909Z,4.70
2023-11-24T08:07:13.738Z,3.97
2023-11-24T08:09:40.260Z,4.53
2023-11-24T08:12:11.645Z,4.35
2023-11-24T08:14:40.541Z,4.40
2023-11-24T08:17:07.198Z,3.75
2023-11-24T08:19:33.752Z,4.20
2023-11-24T08:22:00.270Z,4.20
2023-11-24T08:24:27.172Z,4.00
2023-11-24T08:26:53.659Z,3.63
2023-11-24T08:29:20.140Z,3.85
2023-11-24T08:31:49.297Z,3.65
2023-11-24T08:34:17.082Z,3.92
2023-11-24T08:36:43.678Z,3.95
2023-11-24T08:39:14.378Z,4.35
2023-11-24T08:41:45.563Z,3.97
2023-11-24T08:44:13.323Z,3.67
2023-11-24T08:46:40.288Z,4.47
2023-11-24T08:49:10.125Z,5.15
2023-11-24T08:51:36.755Z,3.58
2023-11-24T08:54:04.806Z,4.05
2023-11-24T08:56:32.979Z,3.70
2023-11-24T08:58:59.566Z,3.28
2023-11-24T09:01:26.090Z,4.07
2023-11-24T09:03:53.474Z,4.15
2023-11-24T09:06:30.072Z,4.20
2023-11-24T09:08:59.669Z,3.67
2023-11-24T09:11:29.049Z,4.38
2023-11-24T09:13:55.647Z,3.90
2023-11-24T09:16:22.870Z,3.58
2023-11-24T09:18:49.763Z,3.90
2023-11-24T09:21:18.794Z,3.42
2023-11-24T09:23:46.054Z,3.67
2023-11-24T09:26:13.660Z,3.65
2023-11-24T09:28:40.609Z,3.60
2023-11-24T09:31:10.303Z,4.40
2023-11-24T09:33:40.270Z,3.83
2023-11-24T09:36:07.839Z,3.72
2023-11-24T09:38:37.101Z,3.67
2023-11-24T09:41:12.666Z,4.13
2023-11-24T09:43:39.816Z,3.83
2023-11-24T09:46:07.985Z,3.88
2023-11-24T09:48:35.647Z,4.00
2023-11-24T09:51:08.327Z,3.92
2023-11-24T09:53:35.123Z,4.13
2023-11-24T09:56:04.811Z,3.58
2023-11-24T09:58:34.560Z,3.40
2023-11-24T10:01:15.301Z,3.58
2023-11-24T10:03:46.960Z,4.03
2023-11-24T10:06:14.380Z,3.55
2023-11-24T10:08:41.467Z,3.42
2023-11-24T10:11:15.926Z,3.33
2023-11-24T10:13:49.371Z,3.20
2023-11-24T10:16:17.545Z,3.10
2023-11-24T10:18:44.477Z,2.80
2023-11-24T10:21:23.078Z,3.05
2023-11-24T10:23:59.411Z,3.05
2023-11-24T10:26:26.448Z,3.58
2023-11-24T10:28:53.636Z,3.05
2023-11-24T10:31:21.049Z,2.97
2023-11-24T10:33:48.176Z,3.60
2023-11-24T10:36:17.681Z,3.60
2023-11-24T10:38:45.264Z,3.03
2023-11-24T10:41:24.627Z,3.42
2023-11-24T10:43:51.825Z,3.22
2023-11-24T10:46:22.380Z,3.17
2023-11-24T10:49:02.128Z,2.97
2023-11-24T10:51:46.273Z,3.22
2023-11-24T10:54:35.289Z,2.65
2023-11-24T10:57:03.624Z,2.83
2023-11-24T10:59:35.387Z,2.80
2023-11-24T11:02:08.061Z,3.00
2023-11-24T11:04:36.650Z,2.85
2023-11-24T11:07:28.642Z,3.00
2023-11-24T11:10:00.153Z,3.05
2023-11-24T11:12:44.373Z,3.30
2023-11-24T11:15:11.660Z,3.30
2023-11-24T11:17:39.487Z,3.33
2023-11-24T11:20:16.298Z,3.10
2023-11-24T11:22:45.589Z,3.10
2023-11-24T11:25:21.329Z,3.25
2023-11-24T11:27:48.307Z,3.13
2023-11-24T11:30:27.348Z,3.60
2023-11-24T11:33:25.805Z,2.92
2023-11-24T11:36:11.121Z,3.15
2023-11-24T11:38:44.477Z,3.22
2023-11-24T11:41:11.206Z,3.35
2023-11-24T11:43:54.274Z,4.03
2023-11-24T11:46:20.897Z,3.47
2023-11-24T11:48:47.707Z,3.00
2023-11-24T11:51:17.842Z,2.55
2023-11-24T11:53:44.338Z,3.03
2023-11-24T11:56:13.181Z,3.40
2023-11-24T11:58:42.305Z,3.10
2023-11-24T12:01:09.817Z,2.78
2023-11-24T12:03:36.487Z,3.13
2023-11-24T12:06:07.067Z,3.25
2023-11-24T12:08:34.474Z,3.63
2023-11-24T12:11:01.101Z,2.95
2023-11-24T12:13:27.671Z,3.03
2023-11-24T12:15:54.778Z,4.10
2023-11-24T12:18:21.481Z,3.50
2023-11-24T12:20:50.930Z,2.97
2023-11-24T12:23:19.070Z,4.50
2023-11-24T12:25:45.743Z,3.55
2023-11-24T12:28:14.786Z,2.90
2023-11-24T12:30:43.425Z,2.85
2023-11-24T12:33:16.697Z,2.90
2023-11-24T12:35:48.054Z,2.90
2023-11-24T12:38:15.879Z,2.70
2023-11-24T12:40:44.453Z,2.95
2023-11-24T12:43:19.081Z,2.83
2023-11-24T12:45:49.263Z,3.22
2023-11-24T12:48:25.175Z,2.97
2023-11-24T12:50:57.556Z,2.80
2023-11-24T12:53:24.428Z,2.40
2023-11-24T12:55:50.928Z,3.15
2023-11-24T12:58:17.431Z,3.30
2023-11-24T13:00:43.964Z,3.03
2023-11-24T13:03:11.376Z,2.70
2023-11-24T13:05:40.641Z,2.90
2023-11-24T13:08:07.781Z,2.05
2023-11-24T13:10:35.556Z,2.22
2023-11-24T13:13:02.893Z,2.38
2023-11-24T13:15:29.745Z,2.15
2023-11-24T13:17:59.648Z,2.33
2023-11-24T13:20:29.871Z,2.30
2023-11-24T13:22:59.703Z,2.33
2023-11-24T13:25:30.084Z,2.30
2023-11-24T13:27:56.925Z,2.05
2023-11-24T13:30:25.135Z,2.13
2023-11-24T13:32:52.155Z,2.60
2023-11-24T13:35:20.633Z,2.47
2023-11-24T13:37:51.286Z,2.83
2023-11-24T13:40:21.610Z,2.38
2023-11-24T13:42:48.717Z,2.10
2023-11-24T13:45:18.917Z,2.47
2023-11-24T13:47:45.640Z,2.70
2023-11-24T13:50:12.926Z,2.80
2023-11-24T13:52:39.661Z,2.30
2023-11-24T13:55:07.280Z,2.55
2023-11-24T13:57:34.147Z,2.45
2023-11-24T14:00:00.667Z,2.30
2023-11-24T14:02:27.235Z,2.22
2023-11-24T14:04:55.558Z,2.35
2023-11-24T14:07:22.337Z,1.83
2023-11-24T14:09:49.927Z,2.20
2023-11-24T14:12:18.156Z,1.90
2023-11-24T14:14:44.759Z,1.75
2023-11-24T14:17:13.124Z,1.67
2023-11-24T14:19:39.924Z,1.52
2023-11-24T14:22:07.185Z,1.60
2023-11-24T14:24:34.045Z,2.25
2023-11-24T14:27:00.813Z,1.67
2023-11-24T14:29:29.294Z,1.92
2023-11-24T14:31:56.136Z,1.80
2023-11-24T14:34:22.730Z,1.95
2023-11-24T14:36:49.875Z,2.00
2023-11-24T14:39:32.891Z,1.75
2023-11-24T14:42:00.170Z,1.88
2023-11-24T14:44:27.065Z,1.48
2023-11-24T14:46:53.884Z,1.67
2023-11-24T14:49:21.041Z,1.90
2023-11-24T14:51:48.842Z,2.10
2023-11-24T14:54:17.047Z,2.40
2023-11-24T14:56:44.589Z,2.03
2023-11-24T14:59:11.992Z,2.20
2023-11-24T15:01:39.907Z,2.50
2023-11-24T15:04:17.874Z,2.83
2023-11-24T15:06:51.239Z,2.17
2023-11-24T15:09:18.008Z,2.83
2023-11-24T15:11:45.373Z,2.50
2023-11-24T15:14:15.530Z,2.75
2023-11-24T15:16:58.180Z,2.63
2023-11-24T15:19:32.254Z,2.50
2023-11-24T15:22:04.047Z,1.88
2023-11-24T15:24:33.186Z,1.70
2023-11-24T15:27:01.484Z,3.45
2023-11-24T15:29:28.075Z,1.40
2023-11-24T15:31:54.709Z,1.92
2023-11-24T15:34:22.851Z,1.75
2023-11-24T15:36:49.655Z,2.15
2023-11-24T15:39:35.867Z,2.85
2023-11-24T15:42:03.573Z,2.88
2023-11-24T15:44:34.060Z,1.73
2023-11-24T15:47:03.446Z,2.10
2023-11-24T15:49:31.151Z,1.70
2023-11-24T15:51:57.656Z,1.83
2023-11-24T15:54:27.582Z,1.98
2023-11-24T15:56:55.312Z,2.10
2023-11-24T15:59:25.086Z,1.65
2023-11-24T16:01:53.117Z,2.28
2023-11-24T16:04:22.332Z,2.10
2023-11-24T16:06:55.843Z,2.00
2023-11-24T16:09:25.143Z,2.45
2023-11-24T16:12:16.465Z,2.22
2023-11-24T16:14:44.604Z,2.00
2023-11-24T16:17:11.272Z,1.75
2023-11-24T16:19:37.990Z,1.80
2023-11-24T16:22:06.164Z,2.25
2023-11-24T16:24:33.114Z,1.92
2023-11-24T16:27:00.148Z,1.98
2023-11-24T16:29:26.689Z,2.58
2023-11-24T16:31:55.199Z,2.10
2023-11-24T16:34:23.850Z,2.20
2023-11-24T16:36:50.680Z,2.50
2023-11-24T16:39:23.530Z,2.13
2023-11-24T16:41:53.674Z,2.67
2023-11-24T16:44:20.172Z,3.30
2023-11-24T16:46:58.852Z,2.53
2023-11-24T16:49:25.671Z,2.25
2023-11-24T16:51:52.239Z,3.00
2023-11-24T16:54:18.676Z,2.55
2023-11-24T16:56:45.196Z,2.35
2023-11-24T16:59:12.625Z,2.50
2023-11-24T17:01:39.521Z,3.03
2023-11-24T17:04:06.084Z,2.70
2023-11-24T17:06:32.536Z,2.35
2023-11-24T17:08:59.837Z,2.47
2023-11-24T17:11:26.390Z,2.10
2023-11-24T17:13:53.368Z,2.92
2023-11-24T17:16:21.712Z,2.10
2023-11-24T17:18:48.332Z,2.40
2023-11-24T17:21:14.775Z,2.00
2023-11-24T17:23:41.612Z,2.28
2023-11-24T17:26:11.092Z,2.28
2023-11-24T17:28:38.445Z,2.22
2023-11-24T17:31:09.101Z,2.25
2023-11-24T17:33:40.409Z,2.75
2023-11-24T17:36:08.991Z,2.80
2023-11-24T17:38:35.525Z,2.75
2023-11-24T17:41:02.877Z,2.50
2023-11-24T17:43:30.228Z,2.92
2023-11-24T17:45:57.466Z,2.45
2023-11-24T17:48:24.924Z,3.22
2023-11-24T17:50:52.238Z,2.50
2023-11-24T17:53:19.579Z,2.42
2023-11-24T17:55:46.076Z,2.70
2023-11-24T17:58:12.591Z,2.60
2023-11-24T18:00:40.994Z,2.58
2023-11-24T18:03:08.625Z,2.50
2023-11-24T18:05:37.095Z,2.90
2023-11-24T18:08:04.876Z,3.00
2023-11-24T18:10:31.862Z,3.20
2023-11-24T18:12:59.251Z,2.88
2023-11-24T18:15:29.201Z,2.70
2023-11-24T18:17:56.353Z,2.83
2023-11-24T18:20:23.091Z,2.58
2023-11-24T18:22:49.677Z,2.58
2023-11-24T18:25:16.217Z,2.50
2023-11-24T18:27:43.857Z,2.75
2023-11-24T18:30:11.107Z,2.42
2023-11-24T18:32:37.815Z,2.30
2023-11-24T18:35:04.725Z,2.95
2023-11-24T18:37:31.656Z,2.63
2023-11-24T18:40:00.988Z,2.65
2023-11-24T18:42:30.373Z,2.53
2023-11-24T18:44:56.879Z,3.13
2023-11-24T18:47:27.245Z,2.80
2023-11-24T18:49:54.253Z,2.67
2023-11-24T18:52:21.644Z,2.83
2023-11-24T18:54:50.940Z,2.50
2023-11-24T18:57:17.498Z,2.40
2023-11-24T18:59:43.928Z,2.75
2023-11-24T19:02:10.504Z,2.30
2023-11-24T19:04:37.448Z,2.20
2023-11-24T19:07:04.158Z,2.78
2023-11-24T19:09:30.825Z,2.30
2023-11-24T19:11:57.342Z,2.83
2023-11-24T19:14:23.874Z,2.90
2023-11-24T19:16:51.334Z,2.80
2023-11-24T19:19:18.438Z,2.90
2023-11-24T19:21:45.304Z,2.83
2023-11-24T19:24:11.861Z,2.50
2023-11-24T19:26:38.640Z,2.30
2023-11-24T19:29:10.965Z,2.47
2023-11-24T19:31:39.385Z,2.50
2023-11-24T19:34:06.978Z,2.80
2023-11-24T19:36:33.649Z,2.58
2023-11-24T19:39:01.323Z,2.53
2023-11-24T19:41:27.748Z,3.20
2023-11-24T19:43:54.200Z,2.17
2023-11-24T19:46:22.302Z,2.67
2023-11-24T19:48:51.618Z,2.22
2023-11-24T19:51:18.658Z,2.33
2023-11-24T19:53:47.423Z,2.40
2023-11-24T19:56:15.668Z,2.72
2023-11-24T19:58:43.551Z,2.30
2023-11-24T20:01:10.114Z,2.60
2023-11-24T20:03:39.102Z,2.28
2023-11-24T20:06:07.579Z,2.17
2023-11-24T20:08:34.368Z,2.75
2023-11-24T20:11:00.906Z,2.38
2023-11-24T20:13:27.380Z,2.08
2023-11-24T20:15:54.066Z,2.50
2023-11-24T20:18:20.619Z,1.65
2023-11-24T20:20:47.867Z,2.22
2023-11-24T20:23:14.780Z,2.25
2023-11-24T20:25:41.274Z,1.80
2023-11-24T20:28:10.326Z,1.65
2023-11-24T20:30:36.889Z,2.03
2023-11-24T20:33:03.328Z,1.88
2023-11-24T20:35:30.485Z,1.30
2023-11-24T20:37:57.221Z,1.40
2023-11-24T20:40:25.654Z,1.33
2023-11-24T20:42:52.202Z,1.30
2023-11-24T20:45:18.670Z,1.35
2023-11-24T20:47:45.131Z,1.42
2023-11-24T20:50:11.617Z,1.50
2023-11-24T20:52:38.166Z,1.60
2023-11-24T20:55:05.375Z,1.77
2023-11-24T20:57:31.893Z,1.70
2023-11-24T20:59:58.376Z,1.63
2023-11-24T21:02:24.937Z,2.00
2023-11-24T21:04:51.612Z,1.52
2023-11-24T21:07:20.175Z,1.85
2023-11-24T21:09:46.977Z,1.70
2023-11-24T21:12:13.540Z,1.80
2023-11-24T21:14:40.087Z,1.77
2023-11-24T21:17:06.618Z,4.53
2023-11-24T21:19:33.134Z,6.60
2023-11-24T21:21:59.698Z,4.10
2023-11-24T21:24:26.258Z,2.72
2023-11-24T21:26:52.735Z,6.00
2023-11-24T21:29:19.187Z,2.75
2023-11-24T21:31:45.663Z,3.08
2023-11-24T21:34:12.856Z,2.28
2023-11-24T21:36:39.582Z,1.88
2023-11-24T21:39:06.296Z,1.98
2023-11-24T21:41:34.641Z,1.90
2023-11-24T21:44:01.450Z,1.80
2023-11-24T21:46:28.198Z,2.25
2023-11-24T21:48:54.704Z,2.38
2023-11-24T21:51:21.210Z,2.00
2023-11-24T21:53:47.702Z,1.98
2023-11-24T21:56:14.131Z,1.98
2023-11-24T21:58:40.829Z,1.90
2023-11-24T22:01:07.460Z,2.05
2023-11-24T22:03:34.055Z,1.70
2023-11-24T22:06:01.033Z,2.40
2023-11-24T22:08:27.466Z,2.00
2023-11-24T22:10:54.115Z,1.88
2023-11-24T22:13:21.011Z,2.10
2023-11-24T22:15:50.026Z,2.00
2023-11-24T22:18:17.358Z,1.92
2023-11-24T22:20:46.801Z,1.77
2023-11-24T22:23:13.648Z,1.80
2023-11-24T22:25:40.234Z,2.55
2023-11-24T22:28:06.963Z,2.30
2023-11-24T22:30:33.594Z,2.20
2023-11-24T22:33:00.137Z,1.95
2023-11-24T22:35:26.723Z,2.25
2023-11-24T22:37:53.193Z,1.90
2023-11-24T22:40:19.769Z,2.00
2023-11-24T22:42:46.528Z,1.73
2023-11-24T22:45:13.149Z,2.00
2023-11-24T22:47:42.625Z,1.98
2023-11-24T22:50:11.243Z,1.65
2023-11-24T22:52:38.547Z,1.70
2023-11-24T22:55:06.716Z,2.28
2023-11-24T22:57:33.904Z,2.47
2023-11-24T23:00:00.486Z,1.92
2023-11-24T23:02:27.495Z,2.30
2023-11-24T23:04:54.010Z,2.88
2023-11-24T23:07:25.094Z,2.00
2023-11-24T23:09:53.669Z,2.38
2023-11-24T23:12:20.386Z,3.13
2023-11-24T23:14:47.182Z,4.30
2023-11-24T23:17:13.718Z,4.25
2023-11-24T23:19:41.665Z,3.20
2023-11-24T23:22:09.770Z,2.20
2023-11-24T23:24:36.867Z,2.30
2023-11-24T23:27:07.252Z,2.30
2023-11-24T23:29:34.610Z,2.00
2023-11-24T23:32:01.173Z,2.00
2023-11-24T23:34:27.728Z,1.80
2023-11-24T23:36:54.198Z,2.05
2023-11-24T23:39:20.753Z,2.30
2023-11-24T23:41:47.196Z,1.38
2023-11-24T23:44:15.623Z,1.33
2023-11-24T23:46:42.769Z,1.50
2023-11-24T23:49:09.673Z,1.98
2023-11-24T23:51:36.255Z,1.48
2023-11-24T23:54:03.983Z,1.38
2023-11-24T23:56:30.535Z,1.35
2023-11-24T23:58:56.962Z,1.73
